Time;durP1;ratioP1;P1;durP2;ratioP2;P2;SDS_P1;SDS_P2;PMS_P1;PMS_P2;Temp;Humidity;BMP_temperature;BMP_pressure;BME280_temperature;BME280_humidity;BME280_pressure;Samples;Min_cycle;Max_cycle;Signal;HPM_P1;HPM_P2
2021/09/29 00:01:12;;;;;;;13.25;3.92;;;10.90;99.90;;;;;;5068832;28;20121;-60
2021/09/29 00:03:38;;;;;;;14.05;3.95;;;10.90;99.90;;;;;;5054623;28;20024;-57
2021/09/29 00:06:04;;;;;;;13.30;4.32;;;10.80;99.90;;;;;;5073293;28;20027;-55
2021/09/29 00:08:30;;;;;;;11.52;4.47;;;10.80;99.90;;;;;;5070814;28;20101;-57
2021/09/29 00:10:56;;;;;;;15.98;4.78;;;10.80;99.90;;;;;;5068931;28;20020;-57
2021/09/29 00:13:24;;;;;;;12.38;4.32;;;10.80;99.90;;;;;;5067608;28;20036;-56
2021/09/29 00:15:50;;;;;;;11.43;4.22;;;10.80;99.90;;;;;;5063416;28;20356;-58
2021/09/29 00:18:16;;;;;;;9.93;4.35;;;10.90;99.90;;;;;;5070222;28;20073;-57
2021/09/29 00:20:42;;;;;;;14.48;4.63;;;10.80;99.90;;;;;;5070889;28;20024;-59
2021/09/29 00:23:07;;;;;;;21.55;5.32;;;10.80;99.90;;;;;;5069384;28;20475;-56
2021/09/29 00:25:33;;;;;;;14.27;5.30;;;10.80;99.90;;;;;;5066034;28;20472;-55
2021/09/29 00:27:58;;;;;;;17.15;4.82;;;10.70;99.90;;;;;;5071449;28;20357;-54
2021/09/29 00:30:24;;;;;;;14.70;5.03;;;10.70;99.90;;;;;;5069550;28;20118;-55
2021/09/29 00:32:49;;;;;;;9.20;4.95;;;10.70;99.90;;;;;;5070641;28;20025;-53
2021/09/29 00:35:16;;;;;;;13.15;5.10;;;10.70;99.90;;;;;;5068440;28;20107;-54
2021/09/29 00:37:42;;;;;;;15.55;4.82;;;10.70;99.90;;;;;;5070404;28;20048;-58
2021/09/29 00:40:10;;;;;;;15.10;4.55;;;10.70;99.90;;;;;;5068671;28;20025;-56
2021/09/29 00:42:36;;;;;;;11.07;4.68;;;10.70;99.90;;;;;;5070536;28;20379;-55
2021/09/29 00:45:02;;;;;;;14.82;4.18;;;10.70;99.90;;;;;;5068857;28;20020;-55
2021/09/29 00:47:30;;;;;;;15.82;4.78;;;10.70;99.90;;;;;;5070205;28;20027;-56
2021/09/29 00:49:55;;;;;;;12.63;4.32;;;10.70;99.90;;;;;;5070008;28;20043;-56
2021/09/29 00:52:21;;;;;;;15.73;5.10;;;10.70;99.90;;;;;;5069046;28;20475;-55
2021/09/29 00:54:46;;;;;;;10.85;4.00;;;10.70;99.90;;;;;;5065281;28;20029;-56
2021/09/29 00:57:12;;;;;;;7.63;4.35;;;10.80;99.90;;;;;;5071074;28;20035;-56
2021/09/29 00:59:37;;;;;;;15.57;4.65;;;10.80;99.90;;;;;;5065215;28;20036;-53
2021/09/29 01:02:03;;;;;;;13.40;4.22;;;10.80;99.90;;;;;;5069721;28;20020;-58
2021/09/29 01:04:30;;;;;;;13.38;4.22;;;10.80;99.90;;;;;;5065624;28;20059;-57
2021/09/29 01:07:05;;;;;;;12.85;4.40;;;10.70;99.90;;;;;;5068506;28;20121;-56
2021/09/29 01:09:34;;;;;;;;;;;10.80;99.90;;;;;;5068144;28;20020;-56
2021/09/29 01:12:28;;;;;;;11.57;3.85;;;10.70;99.90;;;;;;5070676;28;19904;-57
2021/09/29 01:15:04;;;;;;;13.67;4.97;;;10.70;99.90;;;;;;5066732;28;20029;-57
2021/09/29 01:17:30;;;;;;;11.77;4.13;;;10.70;99.90;;;;;;5066059;28;20028;-56
2021/09/29 01:20:12;;;;;;;18.52;5.13;;;10.60;99.90;;;;;;5065249;28;20052;-56
2021/09/29 01:22:54;;;;;;;20.42;5.10;;;10.70;99.90;;;;;;5069671;28;20028;-52
2021/09/29 01:25:29;;;;;;;15.43;4.68;;;10.70;99.90;;;;;;5061779;28;20361;-56
2021/09/29 01:27:57;;;;;;;16.63;5.03;;;10.60;99.90;;;;;;5067439;28;20503;-56
2021/09/29 01:30:23;;;;;;;11.68;4.90;;;10.60;99.90;;;;;;5070155;28;20020;-56
2021/09/29 01:32:49;;;;;;;16.17;5.25;;;10.60;99.90;;;;;;5066299;28;20021;-57
2021/09/29 01:35:14;;;;;;;14.43;6.00;;;10.60;99.90;;;;;;5068675;28;20025;-56
2021/09/29 01:37:41;;;;;;;11.05;5.30;;;10.60;99.90;;;;;;5070039;28;20421;-55
2021/09/29 01:40:09;;;;;;;19.98;4.82;;;10.60;99.90;;;;;;5069309;28;20023;-53
2021/09/29 01:42:35;;;;;;;9.90;5.10;;;10.60;99.90;;;;;;5068033;28;20021;-56
2021/09/29 01:45:00;;;;;;;12.95;4.82;;;10.60;99.90;;;;;;5069895;28;20021;-57
2021/09/29 01:47:26;;;;;;;14.00;5.55;;;10.50;99.90;;;;;;5068441;28;20021;-58
2021/09/29 01:49:54;;;;;;;14.73;5.70;;;10.50;99.90;;;;;;5068883;28;20039;-54
2021/09/29 01:52:21;;;;;;;14.30;5.45;;;10.50;99.90;;;;;;5069380;28;20020;-55
2021/09/29 01:54:49;;;;;;;13.98;6.10;;;10.50;99.90;;;;;;5070183;28;20471;-53
2021/09/29 01:57:15;;;;;;;12.25;5.47;;;10.50;99.90;;;;;;5068687;28;20043;-56
2021/09/29 01:59:43;;;;;;;15.38;6.00;;;10.60;99.90;;;;;;5070323;28;20143;-57
2021/09/29 02:02:08;;;;;;;27.98;5.70;;;10.60;99.90;;;;;;5064830;28;20023;-55
2021/09/29 02:04:34;;;;;;;22.33;6.60;;;10.60;99.90;;;;;;5071124;28;20429;-57
2021/09/29 02:07:00;;;;;;;14.38;5.68;;;10.60;99.90;;;;;;5066203;28;20036;-55
2021/09/29 02:09:27;;;;;;;16.08;5.72;;;10.60;99.90;;;;;;5069629;28;20032;-57
2021/09/29 02:11:55;;;;;;;18.13;6.18;;;10.60;99.90;;;;;;5069597;28;20167;-57
2021/09/29 02:14:22;;;;;;;17.33;6.25;;;10.60;99.90;;;;;;5068141;28;20087;-56
2021/09/29 02:16:50;;;;;;;12.73;6.05;;;10.70;99.90;;;;;;5069105;28;20032;-56
2021/09/29 02:19:16;;;;;;;23.17;7.13;;;10.70;99.90;;;;;;5062816;28;20024;-56
2021/09/29 02:21:42;;;;;;;15.82;6.35;;;10.60;99.90;;;;;;5069421;28;20024;-56
2021/09/29 02:24:08;;;;;;;10.38;5.40;;;10.60;99.90;;;;;;5051006;28;20023;-57
2021/09/29 02:26:35;;;;;;;15.68;5.95;;;10.60;99.90;;;;;;5069021;28;20471;-58
2021/09/29 02:29:01;;;;;;;17.45;6.50;;;10.70;99.90;;;;;;5069712;28;20024;-56
2021/09/29 02:31:27;;;;;;;12.10;6.03;;;10.70;99.90;;;;;;5051063;28;20025;-54
2021/09/29 02:33:53;;;;;;;13.10;5.40;;;10.70;99.90;;;;;;5069919;28;20044;-56
2021/09/29 02:36:19;;;;;;;16.90;5.43;;;10.60;99.90;;;;;;5073233;23;20037;-56
2021/09/29 02:38:45;;;;;;;13.68;6.03;;;10.70;99.90;;;;;;5038086;28;20013;-56
2021/09/29 02:41:12;;;;;;;18.05;6.53;;;10.60;99.90;;;;;;5042669;28;20021;-59
2021/09/29 02:43:38;;;;;;;16.70;5.60;;;10.60;99.90;;;;;;5039419;28;20017;-53
2021/09/29 02:46:03;;;;;;;17.13;6.20;;;10.50;99.90;;;;;;5042249;28;20025;-53
2021/09/29 02:48:29;;;;;;;18.95;6.55;;;10.50;99.90;;;;;;5026465;28;20024;-57
2021/09/29 02:50:55;;;;;;;22.98;5.65;;;10.50;99.90;;;;;;5024169;28;20100;-56
2021/09/29 02:53:21;;;;;;;15.93;5.18;;;10.40;99.90;;;;;;5019066;28;20580;-55
2021/09/29 02:55:46;;;;;;;17.17;5.93;;;10.50;99.90;;;;;;5019555;28;20109;-55
2021/09/29 02:58:12;;;;;;;14.57;6.47;;;10.50;99.90;;;;;;5024272;28;20030;-58
2021/09/29 03:00:37;;;;;;;12.98;5.28;;;10.40;99.90;;;;;;5013757;28;20117;-56
2021/09/29 03:03:03;;;;;;;19.33;7.10;;;10.40;99.90;;;;;;5027944;28;20092;-57
2021/09/29 03:05:29;;;;;;;18.95;5.63;;;10.40;99.90;;;;;;5028227;28;20025;-55
2021/09/29 03:07:54;;;;;;;17.58;5.45;;;10.40;99.90;;;;;;5021849;28;20030;-58
2021/09/29 03:10:20;;;;;;;19.80;6.55;;;10.40;99.90;;;;;;5029500;28;20026;-58
2021/09/29 03:12:45;;;;;;;16.77;7.30;;;10.30;99.90;;;;;;5025124;28;20495;-58
2021/09/29 03:15:14;;;;;;;15.57;5.68;;;10.30;99.90;;;;;;5024426;28;20033;-58
2021/09/29 03:17:39;;;;;;;10.98;5.80;;;10.30;99.90;;;;;;5025014;28;20021;-60
2021/09/29 03:20:06;;;;;;;15.40;6.63;;;10.40;99.90;;;;;;5029488;28;20021;-57
2021/09/29 03:22:32;;;;;;;12.20;5.47;;;10.40;99.90;;;;;;5023932;28;20061;-58
2021/09/29 03:24:58;;;;;;;16.77;6.70;;;10.50;99.90;;;;;;5025296;28;20017;-55
2021/09/29 03:27:23;;;;;;;12.20;5.90;;;10.50;99.90;;;;;;5022237;28;20040;-59
2021/09/29 03:29:49;;;;;;;20.15;6.30;;;10.40;99.90;;;;;;5021340;28;20042;-58
2021/09/29 03:32:14;;;;;;;16.48;6.85;;;10.40;99.90;;;;;;5027522;28;20487;-58
2021/09/29 03:34:40;;;;;;;11.52;6.07;;;10.40;99.90;;;;;;5025185;28;20021;-57
2021/09/29 03:37:05;;;;;;;12.07;5.50;;;10.40;99.90;;;;;;5020498;28;20037;-58
2021/09/29 03:39:31;;;;;;;29.02;6.47;;;10.30;99.90;;;;;;5023564;28;20021;-58
2021/09/29 03:41:56;;;;;;;12.63;5.60;;;10.30;99.90;;;;;;5022350;28;20174;-56
2021/09/29 03:44:22;;;;;;;18.98;5.57;;;10.30;99.90;;;;;;5023650;28;20022;-55
2021/09/29 03:46:48;;;;;;;14.52;5.65;;;10.30;99.90;;;;;;5030031;28;20428;-58
2021/09/29 03:49:14;;;;;;;17.67;6.25;;;10.30;99.90;;;;;;5029714;28;20032;-56
2021/09/29 03:51:39;;;;;;;19.02;6.55;;;10.30;99.90;;;;;;5022847;28;20021;-58
2021/09/29 03:54:05;;;;;;;13.73;5.65;;;10.30;99.90;;;;;;5021179;28;20026;-59
2021/09/29 03:56:30;;;;;;;19.15;5.57;;;10.40;99.90;;;;;;5024200;28;20034;-59
2021/09/29 03:58:56;;;;;;;16.25;6.07;;;10.40;99.90;;;;;;5023487;28;20034;-57
2021/09/29 04:01:21;;;;;;;11.63;5.60;;;10.40;99.90;;;;;;5024992;28;20059;-57
2021/09/29 04:03:47;;;;;;;9.38;5.57;;;10.40;99.90;;;;;;5021610;28;20022;-56
2021/09/29 04:06:12;;;;;;;18.38;6.00;;;10.40;99.90;;;;;;5023977;28;20021;-58
2021/09/29 04:08:38;;;;;;;17.75;6.00;;;10.50;99.90;;;;;;5025678;28;20488;-58
2021/09/29 04:11:06;;;;;;;16.95;6.25;;;10.40;99.90;;;;;;5025145;28;20022;-57
2021/09/29 04:13:32;;;;;;;19.27;6.63;;;10.40;99.90;;;;;;5025360;28;20018;-55
2021/09/29 04:15:57;;;;;;;16.63;6.20;;;10.40;99.90;;;;;;5026642;28;20024;-56
2021/09/29 04:18:23;;;;;;;17.58;5.32;;;10.40;99.90;;;;;;5019492;28;20021;-55
2021/09/29 04:20:49;;;;;;;13.20;6.90;;;10.40;99.90;;;;;;5025805;28;20021;-55
2021/09/29 04:23:14;;;;;;;21.30;6.80;;;10.30;99.90;;;;;;5023881;28;20034;-58
2021/09/29 04:25:41;;;;;;;10.55;5.90;;;10.20;99.90;;;;;;5022534;28;20030;-56
2021/09/29 04:28:07;;;;;;;11.00;6.28;;;10.30;99.90;;;;;;5028143;28;20029;-58
2021/09/29 04:30:33;;;;;;;14.88;6.57;;;10.30;99.90;;;;;;5028459;28;20013;-55
2021/09/29 04:33:00;;;;;;;11.07;6.93;;;10.30;99.90;;;;;;5025377;28;20052;-54
2021/09/29 04:35:26;;;;;;;19.70;5.72;;;10.40;99.90;;;;;;5019524;28;20028;-56
2021/09/29 04:37:52;;;;;;;16.67;5.97;;;10.30;99.90;;;;;;5021168;28;20076;-55
2021/09/29 04:40:18;;;;;;;16.75;5.78;;;10.30;99.90;;;;;;5021580;28;20034;-57
2021/09/29 04:42:43;;;;;;;15.20;5.75;;;10.30;99.90;;;;;;5025519;28;20257;-55
2021/09/29 04:45:09;;;;;;;11.80;5.40;;;10.30;99.90;;;;;;5024175;28;20024;-58
2021/09/29 04:47:35;;;;;;;13.40;5.75;;;10.30;99.90;;;;;;5021818;28;20516;-55
2021/09/29 04:50:01;;;;;;;13.45;6.03;;;10.30;99.90;;;;;;5014580;28;20053;-58
2021/09/29 04:52:26;;;;;;;16.63;6.05;;;10.40;99.90;;;;;;5006802;28;20460;-57
2021/09/29 04:54:52;;;;;;;12.82;5.60;;;10.40;99.90;;;;;;5019818;28;20033;-56
2021/09/29 04:57:18;;;;;;;10.45;5.65;;;10.40;99.90;;;;;;5024010;28;20142;-54
2021/09/29 04:59:44;;;;;;;13.45;6.22;;;10.40;99.90;;;;;;5026180;28;20473;-55
2021/09/29 05:02:11;;;;;;;15.57;6.07;;;10.50;99.90;;;;;;5011279;28;20053;-58
2021/09/29 05:04:37;;;;;;;14.85;7.40;;;10.50;99.90;;;;;;5019607;28;20026;-56
2021/09/29 05:07:04;;;;;;;16.35;6.80;;;10.50;99.90;;;;;;5012513;28;20029;-54
2021/09/29 05:09:31;;;;;;;14.25;6.20;;;10.50;99.90;;;;;;5025223;28;20053;-61
2021/09/29 05:12:04;;;;;;;15.90;6.60;;;10.60;99.90;;;;;;5023305;28;20473;-58
2021/09/29 05:14:30;;;;;;;10.10;5.57;;;10.60;99.90;;;;;;5029032;28;20071;-57
2021/09/29 05:16:55;;;;;;;11.25;6.18;;;10.60;99.90;;;;;;5022032;28;20033;-56
2021/09/29 05:19:21;;;;;;;24.08;6.30;;;10.60;99.90;;;;;;5012730;28;20060;-56
2021/09/29 05:21:46;;;;;;;19.05;6.88;;;10.50;99.90;;;;;;5023991;28;20018;-56
2021/09/29 05:24:12;;;;;;;15.75;6.43;;;10.50;99.90;;;;;;5025998;28;20033;-56
2021/09/29 05:26:37;;;;;;;11.98;6.43;;;10.60;99.90;;;;;;5026705;28;20025;-56
2021/09/29 05:29:06;;;;;;;17.40;7.45;;;10.60;99.90;;;;;;5025577;28;20029;-57
2021/09/29 05:31:32;;;;;;;23.13;6.63;;;10.50;99.90;;;;;;5018330;28;20104;-55
2021/09/29 05:33:58;;;;;;;12.98;5.95;;;10.60;99.90;;;;;;5013728;28;20026;-59
2021/09/29 05:36:23;;;;;;;11.90;6.15;;;10.60;99.90;;;;;;5016193;28;20079;-59
2021/09/29 05:38:49;;;;;;;13.60;7.35;;;10.60;99.90;;;;;;5021450;28;20556;-56
2021/09/29 05:41:15;;;;;;;16.38;6.68;;;10.70;99.90;;;;;;5029764;28;20369;-58
2021/09/29 05:43:40;;;;;;;14.70;5.85;;;10.70;99.90;;;;;;5022997;28;20033;-56
2021/09/29 05:46:06;;;;;;;12.93;5.85;;;10.70;99.90;;;;;;5011009;28;20095;-59
2021/09/29 05:48:32;;;;;;;15.10;6.65;;;10.80;99.90;;;;;;5013750;28;20109;-56
2021/09/29 05:50:57;;;;;;;14.18;6.63;;;10.90;99.90;;;;;;5011476;28;20381;-56
2021/09/29 05:53:23;;;;;;;12.48;6.07;;;10.90;99.90;;;;;;5027582;28;20100;-58
2021/09/29 05:55:49;;;;;;;16.13;6.78;;;11.10;99.90;;;;;;5012662;28;20029;-60
2021/09/29 05:58:14;;;;;;;21.45;5.75;;;11.20;99.90;;;;;;5022378;28;20095;-59
2021/09/29 06:00:40;;;;;;;19.23;5.45;;;11.30;99.90;;;;;;5028549;28;20075;-58
2021/09/29 06:03:05;;;;;;;18.52;6.45;;;11.40;99.90;;;;;;5014025;28;20030;-58
2021/09/29 06:05:31;;;;;;;15.63;5.45;;;11.50;99.90;;;;;;5010972;28;20022;-58
2021/09/29 06:07:56;;;;;;;14.70;5.18;;;11.60;99.90;;;;;;5010476;28;20068;-58
2021/09/29 06:10:23;;;;;;;14.68;4.90;;;11.70;99.90;;;;;;5010649;28;20018;-58
2021/09/29 06:12:49;;;;;;;11.55;4.75;;;11.80;99.90;;;;;;4995140;28;20033;-56
2021/09/29 06:15:20;;;;;;;11.07;5.22;;;11.80;99.90;;;;;;5012047;28;20030;-57
2021/09/29 06:17:55;;;;;;;18.02;5.03;;;11.80;99.90;;;;;;5012806;28;20094;-58
2021/09/29 06:20:22;;;;;;;14.35;5.82;;;11.90;99.90;;;;;;4999127;28;20033;-58
2021/09/29 06:22:47;;;;;;;12.85;6.47;;;11.90;99.90;;;;;;5017000;28;20116;-59
2021/09/29 06:25:13;;;;;;;14.38;5.03;;;11.90;99.90;;;;;;4986951;28;20300;-58
2021/09/29 06:27:39;;;;;;;13.43;5.65;;;11.90;99.90;;;;;;4998528;28;20477;-59
2021/09/29 06:30:06;;;;;;;13.55;5.90;;;12.00;99.90;;;;;;4981597;28;20060;-60
2021/09/29 06:32:31;;;;;;;11.02;6.18;;;12.00;99.90;;;;;;4997995;28;20125;-61
2021/09/29 06:34:57;;;;;;;14.93;5.63;;;12.00;99.90;;;;;;5015697;28;20109;-59
2021/09/29 06:37:22;;;;;;;10.57;5.75;;;12.00;99.90;;;;;;4997868;28;20034;-60
2021/09/29 06:39:48;;;;;;;18.55;6.18;;;12.00;99.90;;;;;;5015323;28;20054;-55
2021/09/29 06:42:13;;;;;;;17.65;5.72;;;12.00;99.90;;;;;;5008664;28;20652;-58
2021/09/29 06:44:39;;;;;;;13.90;6.38;;;12.00;99.90;;;;;;5029843;28;20025;-60
2021/09/29 06:47:05;;;;;;;13.60;6.47;;;12.00;99.90;;;;;;5015208;28;20030;-61
2021/09/29 06:49:30;;;;;;;11.13;5.57;;;12.10;99.90;;;;;;4980943;28;20026;-58
2021/09/29 06:51:56;;;;;;;11.35;6.15;;;12.00;99.90;;;;;;5022611;28;20489;-58
2021/09/29 06:54:22;;;;;;;13.55;6.38;;;12.10;99.90;;;;;;4995168;28;20033;-56
2021/09/29 06:56:48;;;;;;;14.75;7.28;;;12.00;99.90;;;;;;5025806;28;20029;-59
2021/09/29 06:59:13;;;;;;;19.90;6.30;;;12.00;99.90;;;;;;4997043;28;20034;-59
2021/09/29 07:01:39;;;;;;;11.52;6.50;;;12.10;99.90;;;;;;5015059;28;20045;-56
2021/09/29 07:04:04;;;;;;;22.75;6.80;;;12.10;99.90;;;;;;5014914;28;20022;-55
2021/09/29 07:06:30;;;;;;;19.30;7.03;;;12.10;99.90;;;;;;4997313;28;20080;-58
2021/09/29 07:08:56;;;;;;;18.30;6.50;;;12.10;99.90;;;;;;4997305;28;20430;-57
2021/09/29 07:11:21;;;;;;;15.65;6.78;;;12.10;99.90;;;;;;4998696;28;20034;-58
2021/09/29 07:13:47;;;;;;;17.02;6.63;;;12.10;99.90;;;;;;5010764;28;20067;-60
2021/09/29 07:16:13;;;;;;;26.35;7.47;;;12.20;99.90;;;;;;5017018;28;20061;-59
2021/09/29 07:18:39;;;;;;;14.30;7.10;;;12.10;99.90;;;;;;4999134;28;20117;-60
2021/09/29 07:21:06;;;;;;;16.90;7.22;;;12.20;99.90;;;;;;4999318;28;20033;-59
2021/09/29 07:23:32;;;;;;;18.38;8.15;;;12.20;99.90;;;;;;5015826;28;20029;-56
2021/09/29 07:25:58;;;;;;;16.73;7.25;;;12.20;99.90;;;;;;5033158;28;20018;-58
2021/09/29 07:28:23;;;;;;;25.65;9.82;;;12.20;99.90;;;;;;4998411;28;20021;-59
2021/09/29 07:30:49;;;;;;;21.50;9.52;;;12.20;99.90;;;;;;4979682;28;20508;-60
2021/09/29 07:33:15;;;;;;;17.85;9.70;;;12.20;99.90;;;;;;4996712;28;20038;-57
2021/09/29 07:35:43;;;;;;;24.25;10.85;;;12.20;99.90;;;;;;4996331;28;20061;-59
2021/09/29 07:38:10;;;;;;;20.67;10.13;;;12.20;99.90;;;;;;5000419;28;20095;-59
2021/09/29 07:40:37;;;;;;;15.52;8.43;;;12.30;99.90;;;;;;5002124;28;20033;-60
2021/09/29 07:43:04;;;;;;;20.02;7.82;;;12.20;99.90;;;;;;4996633;28;20061;-57
2021/09/29 07:45:30;;;;;;;20.38;8.63;;;12.30;99.90;;;;;;4996746;28;20014;-60
2021/09/29 07:47:56;;;;;;;18.85;9.13;;;12.30;99.90;;;;;;4996441;28;20026;-61
2021/09/29 07:50:23;;;;;;;24.55;9.55;;;12.30;99.90;;;;;;4996478;28;20401;-59
2021/09/29 07:52:50;;;;;;;18.75;9.07;;;12.30;99.90;;;;;;4996656;28;20036;-61
2021/09/29 07:55:16;;;;;;;20.75;8.45;;;12.30;99.90;;;;;;4999062;28;20029;-59
2021/09/29 07:57:43;;;;;;;20.05;9.15;;;12.30;99.90;;;;;;5007658;28;20046;-59
2021/09/29 08:00:10;;;;;;;29.30;9.77;;;12.40;99.90;;;;;;5014096;28;20026;-59
2021/09/29 08:02:36;;;;;;;23.13;8.25;;;12.40;99.90;;;;;;5002417;28;20022;-59
2021/09/29 08:05:03;;;;;;;22.73;8.85;;;12.40;99.90;;;;;;5000227;28;20563;-61
2021/09/29 08:07:29;;;;;;;18.38;8.43;;;12.40;99.90;;;;;;4986792;28;20390;-60
2021/09/29 08:09:55;;;;;;;24.38;8.57;;;12.40;99.90;;;;;;5026633;28;20061;-61
2021/09/29 08:12:21;;;;;;;26.02;9.82;;;12.40;99.90;;;;;;5013663;28;20037;-62
2021/09/29 08:14:47;;;;;;;13.93;8.23;;;12.40;99.90;;;;;;5005264;28;20033;-59
2021/09/29 08:17:12;;;;;;;17.75;8.15;;;12.40;99.90;;;;;;4995186;28;20547;-61
2021/09/29 08:19:38;;;;;;;18.45;8.65;;;12.40;99.90;;;;;;5028327;28;20030;-61
2021/09/29 08:22:06;;;;;;;20.77;8.85;;;12.40;99.90;;;;;;4996083;28;20056;-61
2021/09/29 08:24:55;;;;;;;17.42;8.30;;;12.50;99.90;;;;;;5000387;28;20025;-59
2021/09/29 08:32:28;;;;;;;19.65;8.45;;;12.70;99.90;;;;;;5026236;28;20032;-61
2021/09/29 08:34:57;;;;;;;21.50;9.25;;;12.80;99.90;;;;;;5014810;28;20075;-59
2021/09/29 08:42:26;;;;;;;17.95;9.70;;;13.10;99.90;;;;;;5072550;28;20074;-57
2021/09/29 08:44:55;;;;;;;;;;;13.30;99.90;;;;;;5056449;28;20090;-57
2021/09/29 08:47:31;;;;;;;28.13;11.10;;;13.40;99.90;;;;;;5054691;28;20011;-59
2021/09/29 08:50:09;;;;;;;19.65;10.77;;;13.50;99.90;;;;;;5054032;28;20020;-54
2021/09/29 09:17:33;;;;;;;11.95;6.28;;;14.30;99.90;;;;;;5054668;28;20048;-57
2021/09/29 09:20:09;;;;;;;;;;;14.20;99.90;;;;;;5071982;28;20047;-58
2021/09/29 09:22:35;;;;;;;15.32;5.28;;;14.20;99.90;;;;;;5037000;28;19916;-58
2021/09/29 09:25:02;;;;;;;12.95;5.43;;;14.20;99.90;;;;;;5071288;28;20404;-57
2021/09/29 09:27:38;;;;;;;17.58;6.35;;;14.20;99.90;;;;;;5037122;28;20023;-57
2021/09/29 09:30:04;;;;;;;11.02;5.80;;;14.20;99.90;;;;;;5019953;28;20059;-55
2021/09/29 09:32:41;;;;;;;11.30;4.65;;;14.00;99.90;;;;;;5037193;28;20111;-57
2021/09/29 09:35:11;;;;;;;13.60;5.38;;;14.00;99.90;;;;;;5053794;28;20032;-55
2021/09/29 09:37:39;;;;;;;11.40;5.45;;;14.00;99.90;;;;;;5053769;28;20067;-56
2021/09/29 09:40:16;;;;;;;11.55;5.38;;;14.00;99.90;;;;;;5052760;28;20412;-57
2021/09/29 09:42:46;;;;;;;16.90;6.47;;;14.00;99.90;;;;;;5071734;28;20025;-58
2021/09/29 09:45:13;;;;;;;7.55;1.90;;;13.90;99.90;;;;;;5021025;28;20013;-55
2021/09/29 09:47:46;;;;;;;4.32;0.80;;;13.60;99.90;;;;;;5036577;28;20020;-58
2021/09/29 09:50:23;;;;;;;4.35;1.00;;;13.10;99.90;;;;;;5053822;28;20085;-58
2021/09/29 09:52:49;;;;;;;3.38;1.00;;;12.80;99.90;;;;;;5035157;28;20059;-57
2021/09/29 09:55:19;;;;;;;4.00;1.08;;;12.60;99.90;;;;;;5035746;28;20056;-56
2021/09/29 09:57:55;;;;;;;5.53;1.55;;;12.50;99.90;;;;;;5053307;28;20074;-58
2021/09/29 10:00:27;;;;;;;5.97;1.60;;;12.40;99.90;;;;;;5052867;28;20119;-58
2021/09/29 10:02:55;;;;;;;6.10;0.98;;;12.50;99.90;;;;;;5053235;28;20020;-58
2021/09/29 10:05:23;;;;;;;6.88;2.17;;;12.60;99.90;;;;;;5053505;28;20039;-60
2021/09/29 10:07:49;;;;;;;3.55;1.15;;;12.80;99.90;;;;;;5052737;28;20077;-58
2021/09/29 10:10:24;;;;;;;13.35;2.53;;;13.00;99.90;;;;;;5053336;28;20067;-58
2021/09/29 10:27:20;;;;;;;3.92;0.70;;;13.20;99.90;;;;;;5037751;28;20535;-58
2021/09/29 10:29:49;;;;;;;2.15;0.80;;;13.20;99.90;;;;;;5052714;28;20039;-56
2021/09/29 10:35:08;;;;;;;0.88;0.60;;;13.20;99.90;;;;;;5053249;28;20024;-57
2021/09/29 10:43:33;;;;;;;2.75;0.88;;;13.10;99.90;;;;;;5055064;28;20031;-57
2021/09/29 11:05:54;;;;;;;0.70;0.60;;;13.20;99.90;;;;;;5072060;28;20032;-58
2021/09/29 11:30:23;;;;;;;0.80;0.55;;;14.30;99.90;;;;;;5044792;28;20117;-58
2021/09/29 11:35:32;;;;;;;2.05;0.30;;;14.60;99.90;;;;;;5073345;28;20450;-59
2021/09/29 12:08:10;;;;;;;2.73;1.10;;;14.80;99.90;;;;;;5057906;28;20373;-55
2021/09/29 12:10:37;;;;;;;3.83;0.90;;;14.60;99.90;;;;;;5052085;28;20320;-59
2021/09/29 12:13:06;;;;;;;3.10;0.80;;;14.40;99.90;;;;;;5054873;28;20377;-61
2021/09/29 12:15:44;;;;;;;4.85;0.90;;;14.10;99.90;;;;;;5072591;28;20035;-61
2021/09/29 12:18:13;;;;;;;2.63;0.50;;;13.70;99.90;;;;;;5054789;28;20025;-59
2021/09/29 12:20:50;;;;;;;0.68;0.57;;;13.50;99.90;;;;;;5054708;28;20450;-60
2021/09/29 12:23:17;;;;;;;2.15;0.50;;;13.30;99.90;;;;;;5055374;28;20033;-61
2021/09/29 12:25:47;;;;;;;0.57;0.55;;;13.20;99.90;;;;;;5038499;28;20532;-59
2021/09/29 12:34:18;;;;;;;2.15;0.60;;;13.20;99.90;;;;;;5043743;28;20504;-59
2021/09/29 12:36:44;;;;;;;3.13;0.82;;;13.60;99.90;;;;;;5058592;28;20032;-60
2021/09/29 12:39:21;;;;;;;3.25;0.75;;;14.10;99.90;;;;;;5072022;28;20024;-59
2021/09/29 12:41:52;;;;;;;0.90;0.70;;;14.40;99.90;;;;;;5047953;28;20364;-61
2021/09/29 12:44:18;;;;;;;1.10;0.50;;;14.60;99.90;;;;;;5055432;28;20025;-60
2021/09/29 12:46:50;;;;;;;1.15;0.60;;;14.80;99.90;;;;;;5065913;28;20028;-60
2021/09/29 12:49:20;;;;;;;1.15;0.70;;;14.90;99.90;;;;;;5038445;28;20021;-60
2021/09/29 12:51:59;;;;;;;0.68;0.50;;;15.10;99.90;;;;;;5054995;28;20069;-59
2021/09/29 12:54:25;;;;;;;3.13;1.00;;;15.20;99.90;;;;;;5056233;28;20385;-57
2021/09/29 12:56:51;;;;;;;5.80;0.90;;;15.30;99.90;;;;;;5054106;28;20051;-57
2021/09/29 12:59:17;;;;;;;2.40;0.98;;;15.50;99.90;;;;;;5053910;28;20020;-61
2021/09/29 13:01:42;;;;;;;2.60;1.00;;;15.70;99.90;;;;;;5069547;28;20074;-59
2021/09/29 13:04:08;;;;;;;5.82;1.27;;;15.90;99.90;;;;;;5068584;28;20037;-61
2021/09/29 13:06:34;;;;;;;4.00;1.48;;;15.90;99.90;;;;;;5069819;28;20020;-60
2021/09/29 13:08:59;;;;;;;3.70;1.42;;;16.10;99.90;;;;;;5031898;28;20483;-58
2021/09/29 13:11:25;;;;;;;1.60;1.40;;;16.20;99.90;;;;;;5053814;28;20029;-58
2021/09/29 13:13:50;;;;;;;4.00;1.23;;;16.30;99.90;;;;;;5053515;28;20020;-61
2021/09/29 13:16:16;;;;;;;3.22;1.70;;;16.40;99.90;;;;;;5033370;28;20027;-59
2021/09/29 13:18:54;;;;;;;4.28;1.52;;;16.70;99.90;;;;;;5034500;28;20028;-53
2021/09/29 13:21:29;;;;;;;3.80;1.40;;;16.60;99.90;;;;;;5054597;28;20103;-57
2021/09/29 13:24:00;;;;;;;6.80;1.73;;;16.60;99.90;;;;;;5047472;28;20058;-59
2021/09/29 13:37:04;;;;;;;1.45;0.50;;;13.70;99.90;;;;;;5056336;28;20043;-56
2021/09/29 13:39:30;;;;;;;3.13;0.52;;;13.50;99.90;;;;;;5070517;28;20040;-56
2021/09/29 13:41:55;;;;;;;6.28;0.50;;;13.30;99.90;;;;;;5036694;28;20024;-59
2021/09/29 13:44:23;;;;;;;3.47;0.70;;;13.20;99.90;;;;;;5036448;28;20488;-54
2021/09/29 13:46:49;;;;;;;3.88;0.82;;;13.00;99.90;;;;;;5042663;28;20040;-58
2021/09/29 13:49:14;;;;;;;2.90;0.80;;;12.90;99.90;;;;;;5052877;28;20033;-58
2021/09/29 13:51:44;;;;;;;10.25;0.52;;;13.00;99.90;;;;;;5053114;28;20024;-57
2021/09/29 13:54:14;;;;;;;1.95;0.60;;;12.90;99.90;;;;;;5070043;28;20029;-59
2021/09/29 13:56:48;;;;;;;2.25;0.50;;;13.00;99.90;;;;;;5070333;28;20036;-57
2021/09/29 14:29:14;;;;;;;3.28;0.73;;;14.90;99.90;;;;;;5044055;28;20043;-54
2021/09/29 14:32:03;;;;;;;8.80;0.85;;;15.10;99.90;;;;;;5062219;28;20036;-55
2021/09/29 14:34:28;;;;;;;5.78;0.90;;;15.10;99.90;;;;;;5060266;28;20025;-56
2021/09/29 14:36:54;;;;;;;3.45;0.82;;;15.20;99.90;;;;;;5049051;23;20052;-60
2021/09/29 14:39:21;;;;;;;6.78;0.98;;;15.20;99.90;;;;;;5021222;28;20500;-56
2021/09/29 14:41:47;;;;;;;9.85;1.70;;;15.30;99.90;;;;;;5022042;28;20022;-58
2021/09/29 14:44:13;;;;;;;3.28;1.05;;;15.20;99.90;;;;;;5026300;28;20033;-59
2021/09/29 14:46:39;;;;;;;7.18;1.55;;;15.10;99.90;;;;;;5028029;28;20120;-62
2021/09/29 14:49:04;;;;;;;9.70;1.50;;;15.10;99.90;;;;;;5017577;28;20141;-59
2021/09/29 14:51:31;;;;;;;21.10;1.67;;;15.10;99.90;;;;;;5002254;28;20036;-59
2021/09/29 14:53:59;;;;;;;3.47;1.45;;;15.20;99.90;;;;;;5020482;28;20100;-61
2021/09/29 14:56:26;;;;;;;5.45;1.08;;;15.30;99.90;;;;;;5021657;28;20025;-60
2021/09/29 14:58:51;;;;;;;4.75;1.20;;;15.40;99.90;;;;;;5028012;28;20068;-59
2021/09/29 15:01:17;;;;;;;6.63;1.17;;;15.50;99.90;;;;;;5019901;28;20433;-59
2021/09/29 15:03:44;;;;;;;8.90;1.80;;;15.60;99.90;;;;;;5027706;28;20142;-58
2021/09/29 15:06:09;;;;;;;2.85;0.93;;;15.60;99.90;;;;;;5000468;28;20163;-61
2021/09/29 15:08:39;;;;;;;6.25;1.20;;;15.70;99.90;;;;;;5020244;28;20108;-57
2021/09/29 15:11:05;;;;;;;6.35;1.27;;;15.70;99.90;;;;;;5002490;28;20037;-57
2021/09/29 15:13:36;;;;;;;4.97;0.90;;;15.70;99.90;;;;;;5005649;28;20036;-55
2021/09/29 15:16:09;;;;;;;4.90;0.82;;;15.60;99.90;;;;;;5024371;28;20033;-60
2021/09/29 15:18:42;;;;;;;4.72;1.10;;;15.60;99.90;;;;;;4992829;28;20040;-56
2021/09/29 15:48:05;;;;;;;11.15;1.13;;;14.10;99.90;;;;;;5018202;28;20461;-56
2021/09/29 16:03:39;;;;;;;6.05;1.90;;;13.90;99.90;;;;;;5007657;28;20117;-58
2021/09/29 16:08:44;;;;;;;10.20;1.92;;;13.80;99.90;;;;;;4992827;28;20056;-58
2021/09/29 16:16:45;;;;;;;8.27;1.45;;;13.80;99.90;;;;;;5007992;28;20088;-58
2021/09/29 16:32:29;;;;;;;6.68;1.25;;;13.60;99.90;;;;;;5032039;28;20053;-59
2021/09/29 16:35:03;;;;;;;5.95;1.05;;;13.60;99.90;;;;;;5031918;28;20031;-58
2021/09/29 16:37:29;;;;;;;4.45;1.10;;;13.50;99.90;;;;;;5030293;28;20176;-59
2021/09/29 16:39:56;;;;;;;3.33;1.25;;;13.50;99.90;;;;;;5033017;28;20025;-59
2021/09/29 16:42:22;;;;;;;5.00;1.00;;;13.50;99.90;;;;;;5015304;28;20026;-60